Time;durP1;ratioP1;P1;durP2;ratioP2;P2;SDS_P1;SDS_P2;PMS_P1;PMS_P2;Temp;Humidity;BMP_temperature;BMP_pressure;BME280_temperature;BME280_humidity;BME280_pressure;Samples;Min_cycle;Max_cycle;Signal;HPM_P1;HPM_P2
2022/10/03 00:01:20;;;;;;;5.20;2.28;;;20.00;99.90;;;;;;5034298;28;20053;-72
2022/10/03 00:03:48;;;;;;;6.93;2.58;;;20.00;99.90;;;;;;5047095;28;20052;-73
2022/10/03 00:06:50;;;;;;;4.55;2.67;;;20.00;99.90;;;;;;5031866;28;20049;-80
2022/10/03 00:09:18;;;;;;;4.53;2.40;;;20.00;99.90;;;;;;5031092;28;20049;-72
2022/10/03 00:12:07;;;;;;;4.32;2.35;;;20.00;99.90;;;;;;5014874;28;20053;-75
2022/10/03 00:14:51;;;;;;;4.35;3.25;;;19.90;99.90;;;;;;5030613;28;20057;-74
2022/10/03 00:17:22;;;;;;;4.50;2.28;;;19.90;99.90;;;;;;5029889;28;20419;-73
2022/10/03 00:20:27;;;;;;;4.53;2.40;;;20.00;99.90;;;;;;5028767;28;20060;-72
2022/10/03 00:23:15;;;;;;;3.88;1.83;;;20.00;99.90;;;;;;5034839;28;20064;-73
2022/10/03 00:26:29;;;;;;;6.13;3.22;;;20.00;99.90;;;;;;5045189;28;20041;-72
2022/10/03 00:29:25;;;;;;;6.03;2.10;;;19.90;99.90;;;;;;5029091;28;20045;-75
2022/10/03 00:32:07;;;;;;;5.32;2.30;;;19.90;99.90;;;;;;5013705;28;20049;-72
2022/10/03 00:35:01;;;;;;;4.20;2.30;;;19.80;99.90;;;;;;5028438;28;20045;-73
2022/10/03 00:38:04;;;;;;;6.18;2.30;;;19.80;99.90;;;;;;4997020;28;20057;-73
2022/10/03 00:40:55;;;;;;;6.13;2.45;;;19.70;99.90;;;;;;5030231;28;20053;-74
2022/10/03 00:43:58;;;;;;;4.95;2.78;;;19.70;99.90;;;;;;5031288;28;20495;-72
2022/10/03 00:46:31;;;;;;;3.17;2.17;;;19.60;99.90;;;;;;5019882;28;20129;-73
2022/10/03 00:49:46;;;;;;;6.00;2.85;;;19.60;99.90;;;;;;5012562;28;20102;-75
2022/10/03 00:52:38;;;;;;;5.60;2.28;;;19.60;99.90;;;;;;5007492;28;20055;-72
2022/10/03 00:55:34;;;;;;;4.35;2.30;;;19.60;99.90;;;;;;5028872;28;20515;-74
2022/10/03 00:58:30;;;;;;;4.50;2.00;;;19.70;99.90;;;;;;5031753;28;20589;-74
2022/10/03 01:01:20;;;;;;;3.05;2.15;;;19.70;99.90;;;;;;5045388;28;20554;-72
2022/10/03 01:04:10;;;;;;;6.55;1.90;;;19.60;99.90;;;;;;5028817;28;20511;-72
2022/10/03 01:06:58;;;;;;;5.03;2.15;;;19.60;99.90;;;;;;5023588;28;20129;-74
2022/10/03 01:09:40;;;;;;;5.55;2.20;;;19.60;99.90;;;;;;5013508;28;20107;-73
2022/10/03 01:12:47;;;;;;;3.15;2.00;;;19.60;99.90;;;;;;5043587;28;20042;-72
2022/10/03 01:15:25;;;;;;;5.18;2.45;;;19.50;99.90;;;;;;5029784;28;20049;-73
2022/10/03 01:18:39;;;;;;;6.05;2.20;;;19.50;99.90;;;;;;4996324;28;20053;-77
2022/10/03 01:21:32;;;;;;;3.90;2.45;;;19.50;99.90;;;;;;5001877;28;20053;-72
2022/10/03 01:24:12;;;;;;;3.95;1.88;;;19.50;99.90;;;;;;5046450;28;20161;-72
2022/10/03 01:26:57;;;;;;;5.28;1.65;;;19.50;99.90;;;;;;5044517;28;20037;-72
2022/10/03 01:32:57;;;;;;;2.90;1.85;;;19.60;99.90;;;;;;5012934;28;20064;-76
2022/10/03 01:35:44;;;;;;;4.43;2.90;;;19.70;99.90;;;;;;5013595;28;20060;-73
2022/10/03 01:38:37;;;;;;;4.20;2.40;;;19.70;99.90;;;;;;5013491;28;20495;-73
2022/10/03 01:41:21;;;;;;;5.65;2.75;;;19.70;99.90;;;;;;5038857;28;20381;-73
2022/10/03 01:44:05;;;;;;;4.72;2.42;;;19.70;99.90;;;;;;5049574;28;20318;-73
2022/10/03 01:46:36;;;;;;;4.72;2.50;;;19.70;99.90;;;;;;5049272;28;20113;-72
2022/10/03 01:49:26;;;;;;;3.47;2.55;;;19.70;99.90;;;;;;5016133;28;20063;-72
2022/10/03 01:52:17;;;;;;;8.63;2.63;;;19.70;99.90;;;;;;5034662;28;20083;-72
2022/10/03 01:55:04;;;;;;;6.60;2.75;;;19.70;99.90;;;;;;5029874;28;20045;-76
2022/10/03 01:58:02;;;;;;;11.40;2.67;;;19.70;99.90;;;;;;5030876;28;20042;-79
2022/10/03 02:00:41;;;;;;;5.65;2.33;;;19.70;99.90;;;;;;5024991;28;20064;-73
2022/10/03 02:03:33;;;;;;;6.03;3.65;;;19.70;99.90;;;;;;5013353;28;20042;-72
2022/10/03 02:06:49;;;;;;;8.32;3.13;;;19.60;99.90;;;;;;5036927;28;20037;-76
2022/10/03 02:10:07;;;;;;;6.68;2.47;;;19.60;99.90;;;;;;5014447;28;20057;-72
2022/10/03 02:12:40;;;;;;;5.53;2.22;;;19.60;99.90;;;;;;5013879;28;20588;-72
2022/10/03 02:15:25;;;;;;;3.33;2.50;;;19.50;99.90;;;;;;5013124;28;20172;-73
2022/10/03 02:18:14;;;;;;;7.55;2.50;;;19.50;99.90;;;;;;5029072;28;20563;-73
2022/10/03 02:21:19;;;;;;;3.67;2.28;;;19.50;99.90;;;;;;5032226;28;20080;-72
2022/10/03 02:23:51;;;;;;;11.75;3.10;;;19.40;99.90;;;;;;4992391;28;20050;-72
2022/10/03 02:26:44;;;;;;;5.03;2.33;;;19.40;99.90;;;;;;5041281;28;20061;-72
2022/10/03 02:29:21;;;;;;;5.55;2.15;;;19.40;99.90;;;;;;5032931;28;20045;-72
2022/10/03 02:32:07;;;;;;;3.40;2.28;;;19.40;99.90;;;;;;5033571;28;20057;-74
2022/10/03 02:35:19;;;;;;;4.18;1.88;;;19.40;99.90;;;;;;5049990;28;20056;-73
2022/10/03 02:37:56;;;;;;;6.50;2.30;;;19.50;99.90;;;;;;5027466;28;20041;-72
2022/10/03 02:40:54;;;;;;;4.28;2.60;;;19.50;99.90;;;;;;5033485;28;20693;-72
2022/10/03 02:43:55;;;;;;;2.75;1.83;;;19.50;99.90;;;;;;5049781;28;20041;-73
2022/10/03 02:46:50;;;;;;;6.68;2.63;;;19.50;99.90;;;;;;5034058;28;20077;-72
2022/10/03 02:49:32;;;;;;;3.83;1.80;;;19.50;99.90;;;;;;5051045;28;20107;-73
2022/10/03 02:52:27;;;;;;;4.70;2.05;;;19.50;99.90;;;;;;5017145;28;20172;-73
2022/10/03 02:55:19;;;;;;;4.18;2.13;;;19.50;99.90;;;;;;5049428;28;20115;-72
2022/10/03 02:57:56;;;;;;;4.28;1.92;;;19.50;99.90;;;;;;5017631;28;20041;-72
2022/10/03 03:00:39;;;;;;;4.18;1.67;;;19.50;99.90;;;;;;5048828;28;20041;-73
2022/10/03 03:03:34;;;;;;;2.80;1.60;;;19.50;99.90;;;;;;5025631;28;20096;-72
2022/10/03 03:06:36;;;;;;;8.60;2.03;;;19.50;99.90;;;;;;5029467;28;20091;-72
2022/10/03 03:09:56;;;;;;;3.92;1.83;;;19.50;99.90;;;;;;5033816;28;20124;-73
2022/10/03 03:12:57;;;;;;;3.13;1.80;;;19.50;99.90;;;;;;5030886;28;20457;-72
2022/10/03 03:15:55;;;;;;;6.43;1.88;;;19.50;99.90;;;;;;5034357;28;20049;-73
2022/10/03 03:18:49;;;;;;;2.75;1.65;;;19.50;99.90;;;;;;5050793;28;20045;-72
2022/10/03 03:21:37;;;;;;;2.78;1.85;;;19.50;99.90;;;;;;5053517;28;20048;-72
2022/10/03 03:24:17;;;;;;;3.03;1.85;;;19.50;99.90;;;;;;5053592;28;20338;-72
2022/10/03 03:27:04;;;;;;;5.43;1.83;;;19.50;99.90;;;;;;5035509;28;20605;-72
2022/10/03 03:29:56;;;;;;;4.32;1.95;;;19.50;99.90;;;;;;5020044;28;20061;-73
2022/10/03 03:32:50;;;;;;;4.70;2.42;;;19.50;99.90;;;;;;5036374;28;20116;-72
2022/10/03 03:36:06;;;;;;;4.32;1.90;;;19.50;99.90;;;;;;5018191;28;20049;-72
2022/10/03 03:38:59;;;;;;;3.35;2.08;;;19.50;99.90;;;;;;5024120;28;20053;-72
2022/10/03 03:42:03;;;;;;;9.63;3.55;;;19.50;99.90;;;;;;5053501;28;20491;-72
2022/10/03 03:44:53;;;;;;;5.75;2.10;;;19.50;99.90;;;;;;5052378;28;20037;-73
2022/10/03 03:47:42;;;;;;;4.70;2.88;;;19.50;99.90;;;;;;5035822;28;20158;-73
2022/10/03 03:50:46;;;;;;;6.47;2.35;;;19.50;99.90;;;;;;5053250;28;20087;-72
2022/10/03 03:53:33;;;;;;;7.63;2.10;;;19.60;99.90;;;;;;5034351;28;20057;-74
2022/10/03 03:56:28;;;;;;;4.30;1.83;;;19.60;99.90;;;;;;5053116;28;20132;-72
2022/10/03 03:59:34;;;;;;;5.50;2.17;;;19.60;99.90;;;;;;5035436;28;20052;-72
2022/10/03 04:02:21;;;;;;;5.78;2.20;;;19.60;99.90;;;;;;4999244;28;20487;-73
2022/10/03 04:05:42;;;;;;;13.77;3.42;;;19.60;99.90;;;;;;5031744;28;20503;-73
2022/10/03 04:08:34;;;;;;;3.85;1.98;;;19.60;99.90;;;;;;4991113;28;20061;-74
2022/10/03 04:11:30;;;;;;;5.13;2.28;;;19.60;99.90;;;;;;4991602;28;20523;-72
2022/10/03 04:14:16;;;;;;;2.88;2.00;;;19.70;99.90;;;;;;5009832;28;20179;-74
2022/10/03 04:20:18;;;;;;;3.97;2.17;;;19.60;99.90;;;;;;5034704;28;20041;-72
2022/10/03 04:22:49;;;;;;;4.22;2.30;;;19.60;99.90;;;;;;5002510;28;20155;-72
2022/10/03 04:25:25;;;;;;;4.78;2.67;;;19.60;99.90;;;;;;5002263;28;20537;-73
2022/10/03 04:28:33;;;;;;;2.53;1.70;;;19.60;99.90;;;;;;5034955;28;20091;-73
2022/10/03 04:31:24;;;;;;;6.47;2.22;;;19.70;99.90;;;;;;5051490;28;20297;-72
2022/10/03 04:34:20;;;;;;;5.22;2.65;;;19.60;99.90;;;;;;5034659;28;20407;-72
2022/10/03 04:37:30;;;;;;;3.92;2.25;;;19.70;99.90;;;;;;5018177;28;20400;-72
2022/10/03 04:40:26;;;;;;;5.22;2.30;;;19.70;99.90;;;;;;5034551;28;20121;-73
2022/10/03 04:43:03;;;;;;;7.72;2.85;;;19.70;99.90;;;;;;5031569;28;20056;-74
2022/10/03 04:45:44;;;;;;;5.53;2.15;;;19.70;99.90;;;;;;5017463;28;20362;-73
2022/10/03 04:48:18;;;;;;;5.38;1.92;;;19.70;99.90;;;;;;5017572;28;20466;-73
2022/10/03 04:50:56;;;;;;;3.03;1.40;;;19.70;99.90;;;;;;5018031;28;20067;-73
2022/10/03 04:53:41;;;;;;;2.70;2.00;;;19.70;99.90;;;;;;5013472;28;20080;-73
2022/10/03 04:56:30;;;;;;;3.50;1.92;;;19.70;99.90;;;;;;5034614;28;20041;-72
2022/10/03 04:59:03;;;;;;;5.53;1.77;;;19.70;99.90;;;;;;5034564;28;20099;-72
2022/10/03 05:01:51;;;;;;;4.93;1.50;;;19.80;99.90;;;;;;5018147;28;20053;-73
2022/10/03 05:04:44;;;;;;;2.47;1.58;;;19.80;99.90;;;;;;5016826;28;20522;-72
2022/10/03 05:07:40;;;;;;;4.85;1.90;;;19.80;99.90;;;;;;5052124;28;20384;-72
2022/10/03 05:10:39;;;;;;;2.22;1.80;;;19.90;99.90;;;;;;5017951;28;20381;-72
2022/10/03 05:13:27;;;;;;;5.50;1.90;;;19.90;99.90;;;;;;5033844;28;20511;-76
2022/10/03 05:16:00;;;;;;;3.33;1.60;;;20.10;99.90;;;;;;5033652;28;20052;-73
2022/10/03 05:18:56;;;;;;;5.22;1.75;;;20.20;99.90;;;;;;5017950;28;20426;-72
2022/10/03 05:21:54;;;;;;;2.80;1.42;;;20.30;99.90;;;;;;5051820;28;20124;-72
2022/10/03 05:24:28;;;;;;;3.55;1.88;;;20.50;99.90;;;;;;5017910;28;20440;-72
2022/10/03 05:27:34;;;;;;;3.58;1.73;;;20.70;99.90;;;;;;5034363;28;20144;-72
2022/10/03 05:30:07;;;;;;;3.72;1.67;;;20.80;99.90;;;;;;5031750;28;20513;-72
2022/10/03 05:32:50;;;;;;;4.35;1.73;;;21.00;99.90;;;;;;5033822;28;20044;-72
2022/10/03 05:35:26;;;;;;;3.40;1.70;;;21.00;99.90;;;;;;5017788;28;20060;-72
2022/10/03 05:38:25;;;;;;;3.55;1.33;;;21.00;99.90;;;;;;5017806;28;20056;-72
2022/10/03 05:41:03;;;;;;;4.97;1.40;;;21.20;99.90;;;;;;5007201;28;20048;-72
2022/10/03 05:44:14;;;;;;;4.63;2.08;;;21.40;99.90;;;;;;5053466;28;20045;-72
2022/10/03 05:50:31;;;;;;;8.90;1.92;;;21.80;99.90;;;;;;5050691;28;20044;-72
2022/10/03 05:53:17;;;;;;;4.53;1.85;;;22.10;99.90;;;;;;5053042;28;20118;-72
2022/10/03 05:56:32;;;;;;;6.53;2.55;;;22.20;99.90;;;;;;5070919;28;20052;-74
2022/10/03 05:59:39;;;;;;;4.15;1.88;;;22.50;99.90;;;;;;5039342;28;20056;-72
2022/10/03 06:02:31;;;;;;;3.60;1.55;;;22.70;99.90;;;;;;5036920;28;20095;-73
2022/10/03 06:05:31;;;;;;;2.50;1.30;;;22.90;99.90;;;;;;5070947;28;20048;-73
2022/10/03 06:08:23;;;;;;;2.53;1.20;;;23.00;99.90;;;;;;5053709;28;20052;-72
2022/10/03 06:11:06;;;;;;;2.75;1.42;;;22.90;99.90;;;;;;5053272;28;20041;-73
2022/10/03 06:14:06;;;;;;;3.45;1.65;;;22.80;99.90;;;;;;5020916;28;20053;-72
2022/10/03 06:17:23;;;;;;;4.80;1.88;;;22.90;99.90;;;;;;5067736;28;20356;-75
2022/10/03 06:20:15;;;;;;;4.47;1.70;;;23.10;99.90;;;;;;4997530;28;20494;-73
2022/10/03 06:22:46;;;;;;;5.28;2.67;;;23.30;99.90;;;;;;5039563;28;20044;-73
2022/10/03 06:25:43;;;;;;;3.58;1.50;;;23.40;99.90;;;;;;5032266;28;20520;-73
2022/10/03 06:28:53;;;;;;;3.17;1.40;;;23.60;99.90;;;;;;4992860;28;20044;-72
2022/10/03 06:32:12;;;;;;;4.90;2.55;;;23.90;99.90;;;;;;5025298;28;20049;-73
2022/10/03 06:35:04;;;;;;;4.63;2.13;;;24.20;99.90;;;;;;5058457;28;20503;-74
2022/10/03 06:37:37;;;;;;;6.38;2.53;;;24.50;99.90;;;;;;5031437;28;20056;-73
2022/10/03 06:40:25;;;;;;;4.95;2.45;;;24.70;99.90;;;;;;5047153;28;20052;-73
2022/10/03 06:43:24;;;;;;;4.65;1.77;;;24.90;99.90;;;;;;5033358;28;20072;-73
2022/10/03 06:46:29;;;;;;;5.50;1.88;;;25.00;99.90;;;;;;5064935;28;20067;-75
2022/10/03 06:49:20;;;;;;;4.35;1.92;;;25.10;99.90;;;;;;5019813;28;20080;-74
2022/10/03 06:52:15;;;;;;;4.75;1.73;;;25.20;99.90;;;;;;5054366;28;20051;-73
2022/10/03 06:54:46;;;;;;;5.45;2.05;;;25.30;99.90;;;;;;5053962;28;20046;-72
2022/10/03 06:57:48;;;;;;;3.38;1.98;;;25.50;99.90;;;;;;5020985;28;20063;-73
2022/10/03 07:00:20;;;;;;;6.13;1.83;;;25.70;99.90;;;;;;5053213;28;20041;-72
2022/10/03 07:03:09;;;;;;;7.88;2.00;;;25.80;99.90;;;;;;5053760;28;20558;-77
2022/10/03 07:05:56;;;;;;;5.57;2.15;;;25.90;99.90;;;;;;5033495;28;20041;-72
2022/10/03 07:08:30;;;;;;;3.67;1.80;;;26.00;99.90;;;;;;5034415;28;20045;-75
2022/10/03 07:11:01;;;;;;;7.38;2.15;;;26.00;99.90;;;;;;5020919;28;20045;-73
2022/10/03 07:13:49;;;;;;;7.57;2.70;;;26.00;99.90;;;;;;5037483;28;20049;-72
2022/10/03 07:16:22;;;;;;;6.40;2.13;;;26.00;99.90;;;;;;5051820;28;20067;-77
2022/10/03 07:19:12;;;;;;;10.60;2.88;;;26.00;99.90;;;;;;5018281;28;20060;-72
2022/10/03 07:22:04;;;;;;;6.25;3.00;;;26.10;99.90;;;;;;5055471;28;20102;-72
2022/10/03 07:24:54;;;;;;;5.43;1.98;;;26.20;99.90;;;;;;5036574;28;20060;-72
2022/10/03 07:27:47;;;;;;;4.18;1.73;;;26.20;99.90;;;;;;5053131;28;20049;-72
2022/10/03 07:30:23;;;;;;;3.80;1.92;;;26.30;99.90;;;;;;5040020;28;20151;-74
2022/10/03 07:33:41;;;;;;;4.15;2.38;;;26.30;99.90;;;;;;5065518;28;20447;-73
2022/10/03 07:39:46;;;;;;;9.07;2.63;;;26.40;99.90;;;;;;5052731;28;20068;-72
2022/10/03 07:42:58;;;;;;;4.38;1.45;;;26.40;99.90;;;;;;5036346;28;20053;-72
2022/10/03 07:45:45;;;;;;;7.70;2.28;;;26.50;99.90;;;;;;5036768;28;20056;-72
2022/10/03 07:48:51;;;;;;;3.60;1.95;;;26.50;99.90;;;;;;5052451;28;20063;-74
2022/10/03 07:51:49;;;;;;;4.43;2.13;;;26.50;99.90;;;;;;5052492;28;20462;-73
2022/10/03 07:54:33;;;;;;;7.45;1.98;;;26.50;99.90;;;;;;5052379;28;20041;-72
2022/10/03 07:57:05;;;;;;;5.30;1.70;;;26.50;99.90;;;;;;5035902;28;20060;-72
2022/10/03 07:59:52;;;;;;;5.72;2.10;;;26.60;99.90;;;;;;5052102;28;20057;-72
2022/10/03 08:02:36;;;;;;;6.30;2.20;;;26.60;99.90;;;;;;5036041;28;20053;-72
2022/10/03 08:05:28;;;;;;;9.48;2.53;;;26.70;99.90;;;;;;5034996;28;20136;-76
2022/10/03 08:08:17;;;;;;;4.18;1.90;;;26.50;99.90;;;;;;5035803;28;20045;-72
2022/10/03 08:11:28;;;;;;;5.70;2.35;;;26.20;99.90;;;;;;5034680;28;20045;-71
2022/10/03 08:14:18;;;;;;;8.30;2.30;;;25.80;99.90;;;;;;5044984;28;20043;-73
2022/10/03 08:17:05;;;;;;;8.63;1.85;;;25.70;99.90;;;;;;5009699;28;20080;-80
2022/10/03 08:19:55;;;;;;;5.32;1.98;;;25.40;99.90;;;;;;5044640;28;20053;-73
2022/10/03 08:22:32;;;;;;;6.13;1.70;;;25.30;99.90;;;;;;5006437;28;20037;-72
2022/10/03 08:25:19;;;;;;;3.80;1.70;;;25.40;99.90;;;;;;5024451;28;20056;-73
2022/10/03 08:28:16;;;;;;;5.00;1.73;;;25.50;99.90;;;;;;5038103;28;20045;-72
2022/10/03 08:31:05;;;;;;;3.83;1.73;;;25.70;99.90;;;;;;5055518;28;20139;-72
2022/10/03 08:34:01;;;;;;;7.68;2.78;;;25.80;99.90;;;;;;5022271;28;20094;-72
2022/10/03 08:36:48;;;;;;;3.75;1.70;;;25.70;99.90;;;;;;5055508;28;20086;-72
2022/10/03 08:39:17;;;;;;;;;;;25.50;99.90;;;;;;5039328;28;20080;-72
2022/10/03 08:42:14;;;;;;;3.78;2.03;;;25.60;99.90;;;;;;5073605;28;19920;-72
2022/10/03 08:44:51;;;;;;;7.20;1.80;;;25.70;99.90;;;;;;5038691;28;20041;-72
2022/10/03 08:47:36;;;;;;;5.55;1.60;;;25.70;99.90;;;;;;5055509;28;20048;-71
2022/10/03 08:50:57;;;;;;;4.90;1.80;;;25.70;99.90;;;;;;5022633;28;20056;-74
2022/10/03 08:54:12;;;;;;;5.45;2.25;;;25.70;99.90;;;;;;5016981;28;20126;-72
2022/10/03 08:57:09;;;;;;;5.05;1.50;;;25.60;99.90;;;;;;4939613;28;20178;-72
2022/10/03 08:59:39;;;;;;;;;;;25.70;99.90;;;;;;5021798;28;20513;-72
2022/10/03 09:02:49;;;;;;;4.22;2.08;;;25.70;99.90;;;;;;5072765;28;20326;-72
2022/10/03 09:05:46;;;;;;;2.90;1.90;;;25.60;99.90;;;;;;5039128;28;20048;-75
2022/10/03 09:08:39;;;;;;;3.30;1.40;;;25.70;99.90;;;;;;5055170;28;20044;-72
2022/10/03 09:11:39;;;;;;;10.60;2.15;;;25.80;99.90;;;;;;5054476;28;20043;-71
2022/10/03 09:14:16;;;;;;;3.08;1.55;;;25.90;99.90;;;;;;5071890;28;20187;-73
2022/10/03 09:17:10;;;;;;;4.65;2.45;;;26.10;99.90;;;;;;5037174;28;20061;-72
2022/10/03 09:20:15;;;;;;;5.05;2.13;;;26.30;99.90;;;;;;5032187;28;20045;-73
2022/10/03 09:22:51;;;;;;;7.63;2.10;;;26.10;99.90;;;;;;5034046;28;20045;-72
2022/10/03 09:25:54;;;;;;;7.90;1.63;;;26.30;99.90;;;;;;5017593;28;20044;-73
2022/10/03 09:29:07;;;;;;;2.80;1.52;;;26.30;99.90;;;;;;5031216;28;20053;-72
2022/10/03 09:32:12;;;;;;;4.28;1.65;;;26.30;99.90;;;;;;5032496;28;20048;-73
2022/10/03 09:34:56;;;;;;;3.13;1.80;;;26.50;99.90;;;;;;5034124;28;20143;-72
2022/10/03 09:37:24;;;;;;;3.92;1.77;;;26.50;99.70;;;;;;5033705;28;20140;-72
2022/10/03 09:40:21;;;;;;;3.65;1.80;;;26.30;99.50;;;;;;5017173;28;20041;-72
2022/10/03 09:43:26;;;;;;;5.25;2.00;;;26.20;99.70;;;;;;5017149;28;20088;-72
2022/10/03 09:46:04;;;;;;;4.43;1.50;;;26.20;99.90;;;;;;5033621;28;20143;-72
2022/10/03 09:48:55;;;;;;;3.47;1.85;;;26.30;99.90;;;;;;5033970;28;20037;-72
2022/10/03 09:52:04;;;;;;;6.25;1.42;;;26.30;99.60;;;;;;5033389;28;20458;-72
2022/10/03 09:54:46;;;;;;;4.43;1.80;;;26.40;99.60;;;;;;5032920;28;20087;-73
2022/10/03 09:57:48;;;;;;;8.13;2.00;;;26.40;98.50;;;;;;5000372;28;20048;-72
2022/10/03 10:00:58;;;;;;;6.22;1.85;;;26.30;98.50;;;;;;5032995;28;20045;-72
2022/10/03 10:04:16;;;;;;;3.00;1.98;;;26.30;99.00;;;;;;5051009;28;20110;-73
2022/10/03 10:07:13;;;;;;;4.13;1.58;;;26.30;99.00;;;;;;5012160;28;20503;-72
2022/10/03 10:09:59;;;;;;;5.07;1.42;;;26.40;98.90;;;;;;5032843;28;20485;-73
2022/10/03 10:12:30;;;;;;;4.45;1.70;;;26.40;98.60;;;;;;5032997;28;20364;-73
2022/10/03 10:15:19;;;;;;;5.90;1.92;;;26.30;98.80;;;;;;5039578;28;20085;-75
2022/10/03 10:18:00;;;;;;;3.45;1.70;;;26.40;99.20;;;;;;5031928;28;20048;-72
2022/10/03 10:20:41;;;;;;;5.85;1.65;;;26.40;99.20;;;;;;5033582;28;20082;-72
2022/10/03 10:23:30;;;;;;;4.45;1.50;;;26.20;99.50;;;;;;5033400;28;20063;-75
2022/10/03 10:26:36;;;;;;;3.78;1.50;;;26.20;99.70;;;;;;5049370;28;20045;-73
2022/10/03 10:29:10;;;;;;;5.13;1.58;;;26.10;99.80;;;;;;4976333;28;20135;-75
2022/10/03 10:32:43;;;;;;;7.25;2.28;;;26.00;99.90;;;;;;5041875;28;20141;-74
2022/10/03 10:35:53;;;;;;;2.88;1.25;;;25.90;99.90;;;;;;5001130;28;20503;-72
2022/10/03 10:39:01;;;;;;;5.07;1.65;;;25.90;99.90;;;;;;5016806;28;20495;-72
2022/10/03 10:41:38;;;;;;;3.67;1.90;;;26.00;99.90;;;;;;5049143;28;20044;-72
2022/10/03 10:44:40;;;;;;;5.30;1.60;;;26.10;99.90;;;;;;5017163;28;20063;-72
2022/10/03 10:47:17;;;;;;;3.60;1.90;;;26.10;99.90;;;;;;5016574;28;20056;-72
2022/10/03 10:50:24;;;;;;;3.35;2.17;;;26.10;99.30;;;;;;5049357;28;20049;-72
2022/10/03 10:53:31;;;;;;;5.68;1.98;;;26.20;99.20;;;;;;5002889;28;20375;-73
2022/10/03 10:56:44;;;;;;;4.57;1.42;;;26.40;99.10;;;;;;5049402;28;20076;-72
2022/10/03 10:59:21;;;;;;;3.90;2.45;;;26.40;99.00;;;;;;4991879;28;20045;-71
2022/10/03 11:02:07;;;;;;;4.38;1.70;;;26.40;99.20;;;;;;5008798;28;20135;-72
2022/10/03 11:05:22;;;;;;;2.63;1.27;;;26.30;98.90;;;;;;5016306;28;20107;-72
2022/10/03 11:08:25;;;;;;;6.05;1.48;;;26.30;99.00;;;;;;4976647;28;20050;-72
2022/10/03 11:11:30;;;;;;;4.68;1.67;;;26.40;98.70;;;;;;4959910;28;20057;-72
2022/10/03 11:14:11;;;;;;;4.72;1.85;;;26.30;98.00;;;;;;5027206;28;20049;-72
2022/10/03 11:17:07;;;;;;;4.25;1.27;;;26.30;98.20;;;;;;4994551;28;20057;-72
2022/10/03 11:20:02;;;;;;;3.33;1.60;;;26.30;98.00;;;;;;5013841;28;20049;-71
2022/10/03 11:23:02;;;;;;;3.37;1.60;;;26.30;98.00;;;;;;5031085;28;20068;-73
2022/10/03 11:25:59;;;;;;;4.82;1.48;;;26.30;98.40;;;;;;5030780;28;20095;-72
2022/10/03 11:28:47;;;;;;;;;;;26.20;97.10;;;;;;5016081;28;20061;-72
2022/10/03 11:31:48;;;;;;;35.45;32.35;;;26.20;97.20;;;;;;5051654;28;19970;-73
2022/10/03 11:34:56;;;;;;;17.63;15.82;;;26.20;97.10;;;;;;5027907;28;20084;-72
2022/10/03 11:38:01;;;;;;;7.13;2.25;;;26.20;97.20;;;;;;5008534;28;20168;-74
2022/10/03 11:40:47;;;;;;;3.55;2.00;;;26.10;96.50;;;;;;5022535;28;20221;-71
2022/10/03 11:44:03;;;;;;;4.63;1.92;;;26.20;96.80;;;;;;5040267;28;20107;-70
2022/10/03 11:46:56;;;;;;;4.47;1.50;;;26.10;97.30;;;;;;5040496;28;20045;-71
2022/10/03 11:49:59;;;;;;;3.83;1.95;;;26.00;97.60;;;;;;5051679;28;20041;-70
2022/10/03 11:52:31;;;;;;;3.78;1.75;;;25.90;97.90;;;;;;5030424;28;20069;-77
2022/10/03 11:55:38;;;;;;;4.53;2.03;;;25.90;96.80;;;;;;5024413;28;20108;-71
2022/10/03 11:58:14;;;;;;;;;;;25.80;96.90;;;;;;5045869;28;20060;-71
2022/10/03 12:00:46;;;;;;;4.93;3.63;;;25.90;96.90;;;;;;5037931;28;19931;-72
2022/10/03 12:03:25;;;;;;;18.80;9.98;;;25.90;97.00;;;;;;5035687;28;20045;-71
2022/10/03 12:09:02;;;;;;;7.00;1.70;;;25.70;96.00;;;;;;5051223;28;20499;-73
2022/10/03 12:11:55;;;;;;;3.38;1.67;;;25.80;94.80;;;;;;5027635;28;20132;-75
2022/10/03 12:14:36;;;;;;;3.88;1.02;;;25.70;95.20;;;;;;5049851;28;20106;-73
2022/10/03 12:17:31;;;;;;;2.55;1.13;;;25.70;95.50;;;;;;5045155;28;20053;-75
2022/10/03 12:20:32;;;;;;;2.92;0.95;;;25.60;96.30;;;;;;5032274;28;20045;-71
2022/10/03 12:23:16;;;;;;;2.25;0.80;;;25.60;96.10;;;;;;5017738;28;20053;-71
2022/10/03 12:25:46;;;;;;;6.97;1.63;;;25.70;95.90;;;;;;5025826;28;20045;-72
2022/10/03 12:28:22;;;;;;;5.85;1.55;;;25.50;95.90;;;;;;5010738;28;20034;-71
2022/10/03 12:31:14;;;;;;;2.45;0.98;;;25.50;96.70;;;;;;5034412;28;20427;-82
2022/10/03 12:34:11;;;;;;;3.22;1.25;;;25.50;97.50;;;;;;5052074;28;20041;-71
2022/10/03 12:36:57;;;;;;;1.98;1.10;;;25.40;97.90;;;;;;5040376;28;20103;-70
2022/10/03 12:39:49;;;;;;;3.30;1.30;;;25.20;98.10;;;;;;5032040;28;20060;-70
2022/10/03 12:42:27;;;;;;;8.63;1.23;;;25.10;97.90;;;;;;5027935;28;20049;-72
2022/10/03 12:45:01;;;;;;;5.13;1.48;;;25.00;98.00;;;;;;5049489;28;20052;-73
2022/10/03 12:47:47;;;;;;;2.20;1.00;;;24.90;98.30;;;;;;5031948;28;20053;-73
2022/10/03 12:50:58;;;;;;;3.30;1.58;;;24.80;98.70;;;;;;5040414;28;20509;-71
2022/10/03 12:53:40;;;;;;;3.22;1.08;;;24.80;99.10;;;;;;5034306;28;20045;-73
2022/10/03 12:56:36;;;;;;;4.53;1.02;;;24.80;98.70;;;;;;5049649;28;20123;-72
2022/10/03 12:59:18;;;;;;;1.42;0.90;;;24.70;98.60;;;;;;5038340;28;20515;-73
2022/10/03 13:01:55;;;;;;;4.82;1.17;;;24.70;98.80;;;;;;5036586;28;20047;-73
2022/10/03 13:04:46;;;;;;;2.42;1.08;;;24.70;99.20;;;;;;5045494;28;20060;-75
2022/10/03 13:07:51;;;;;;;2.75;1.20;;;24.70;98.70;;;;;;5023625;28;20142;-74
2022/10/03 13:10:46;;;;;;;4.15;1.58;;;24.70;98.20;;;;;;5046265;28;20043;-74
2022/10/03 13:13:20;;;;;;;3.10;1.45;;;24.60;98.30;;;;;;5010671;28;20143;-73
2022/10/03 13:16:17;;;;;;;1.45;0.95;;;24.60;98.30;;;;;;5042124;28;20036;-71
2022/10/03 13:18:51;;;;;;;3.00;1.30;;;24.60;98.40;;;;;;5050823;28;20037;-72
2022/10/03 13:22:22;;;;;;;2.90;1.73;;;24.70;98.70;;;;;;5033391;28;20468;-70
2022/10/03 13:25:14;;;;;;;2.88;1.60;;;24.50;98.80;;;;;;5015157;28;20044;-86
2022/10/03 13:28:00;;;;;;;4.90;1.58;;;24.50;98.90;;;;;;5014905;28;20065;-72
2022/10/03 13:30:35;;;;;;;4.13;1.38;;;24.50;98.90;;;;;;5019487;28;20399;-73
2022/10/03 13:33:16;;;;;;;3.07;1.20;;;24.40;99.30;;;;;;5029962;28;20045;-71
2022/10/03 13:36:08;;;;;;;1.25;0.98;;;24.40;99.50;;;;;;5040188;28;20302;-72
2022/10/03 13:38:46;;;;;;;2.95;1.25;;;24.30;99.50;;;;;;5038946;28;20510;-73
2022/10/03 13:41:41;;;;;;;4.47;2.30;;;24.30;99.90;;;;;;5048588;28;20107;-71
2022/10/03 13:44:23;;;;;;;2.28;1.05;;;24.30;99.90;;;;;;5038301;28;20029;-71
2022/10/03 13:46:55;;;;;;;2.40;1.13;;;24.30;99.90;;;;;;5030533;28;20061;-82
2022/10/03 13:49:48;;;;;;;5.00;2.50;;;24.20;99.90;;;;;;4996874;28;20099;-72
2022/10/03 13:52:38;;;;;;;2.53;1.10;;;24.20;99.90;;;;;;5012620;28;20050;-72
2022/10/03 13:55:35;;;;;;;5.97;2.40;;;24.10;99.90;;;;;;5027891;28;20400;-72
2022/10/03 13:58:26;;;;;;;1.93;1.37;;;24.10;99.90;;;;;;5013415;28;20049;-75
2022/10/03 14:01:10;;;;;;;2.50;1.23;;;24.00;99.90;;;;;;5013416;28;20056;-75
2022/10/03 14:04:06;;;;;;;6.38;2.22;;;23.90;99.90;;;;;;5028929;28;20076;-76
2022/10/03 14:06:55;;;;;;;1.92;1.30;;;23.90;99.90;;;;;;5012900;28;20053;-71
2022/10/03 14:09:35;;;;;;;3.55;1.65;;;24.00;99.90;;;;;;4997672;28;20411;-71
2022/10/03 14:12:07;;;;;;;2.35;1.20;;;23.90;99.90;;;;;;5029616;28;20068;-71
2022/10/03 14:14:41;;;;;;;2.70;1.27;;;23.90;99.90;;;;;;5013539;28;20037;-71
2022/10/03 14:17:22;;;;;;;3.40;1.20;;;23.80;99.90;;;;;;5010986;28;20467;-74
2022/10/03 14:20:16;;;;;;;2.85;1.60;;;23.80;99.90;;;;;;5029180;28;20172;-71
2022/10/03 14:23:02;;;;;;;2.97;2.30;;;23.80;99.90;;;;;;4996964;28;20037;-74
2022/10/03 14:26:04;;;;;;;2.13;1.33;;;23.80;99.90;;;;;;5013346;28;20051;-72
2022/10/03 14:29:11;;;;;;;3.22;1.25;;;23.70;99.90;;;;;;5019324;28;20160;-71
2022/10/03 14:31:45;;;;;;;2.53;1.33;;;23.70;99.90;;;;;;4991142;28;20053;-71
2022/10/03 14:34:23;;;;;;;2.28;1.20;;;23.70;99.90;;;;;;4997191;28;20053;-71
2022/10/03 14:37:11;;;;;;;3.65;1.17;;;23.60;99.90;;;;;;4996787;28;20108;-78
2022/10/03 14:39:42;;;;;;;2.17;1.40;;;23.60;99.90;;;;;;5029305;28;20037;-72
2022/10/03 14:42:58;;;;;;;4.15;1.50;;;23.60;99.90;;;;;;5032222;28;20499;-72
2022/10/03 14:45:48;;;;;;;4.03;1.90;;;23.60;99.90;;;;;;5008141;28;20783;-72
2022/10/03 14:48:24;;;;;;;3.10;1.33;;;23.50;99.90;;;;;;5013314;28;20076;-71
2022/10/03 14:51:02;;;;;;;4.20;1.90;;;23.50;99.90;;;;;;5032593;28;20045;-72
2022/10/03 14:53:32;;;;;;;3.95;1.17;;;23.50;99.90;;;;;;5033015;28;20080;-71
2022/10/03 14:56:12;;;;;;;7.10;1.48;;;23.40;99.90;;;;;;5049392;28;20045;-72
2022/10/03 14:58:55;;;;;;;2.55;1.30;;;23.50;99.90;;;;;;5049161;28;20199;-71
2022/10/03 15:01:30;;;;;;;3.58;1.38;;;23.40;99.90;;;;;;5031471;28;20124;-74
2022/10/03 15:04:02;;;;;;;3.78;2.10;;;23.30;99.90;;;;;;5049918;28;20530;-73
2022/10/03 15:06:33;;;;;;;2.92;1.58;;;23.30;99.90;;;;;;5017855;28;20045;-71